Time;durP1;ratioP1;P1;durP2;ratioP2;P2;SDS_P1;SDS_P2;PMS_P1;PMS_P2;Temp;Humidity;BMP_temperature;BMP_pressure;BME280_temperature;BME280_humidity;BME280_pressure;Samples;Min_cycle;Max_cycle;Signal;HPM_P1;HPM_P2
2023/12/17 00:01:49;;;;;;;37.13;12.30;;;;;;;;;;5074703;28;20196;-78
2023/12/17 00:04:16;;;;;;;25.13;11.40;;;;;;;;;;5074440;28;20690;-77
2023/12/17 00:06:43;;;;;;;20.23;10.47;;;;;;;;;;5074179;28;20214;-77
2023/12/17 00:09:10;;;;;;;33.03;11.97;;;;;;;;;;5074192;28;20285;-77
2023/12/17 00:11:40;;;;;;;29.25;11.43;;;;;;;;;;5074301;28;20257;-76
2023/12/17 00:14:10;;;;;;;26.97;10.87;;;;;;;;;;5040467;28;20203;-76
2023/12/17 00:16:37;;;;;;;28.47;10.83;;;;;;;;;;5056886;28;20202;-76
2023/12/17 00:19:04;;;;;;;30.53;12.07;;;;;;;;;;5074013;28;20207;-76
2023/12/17 00:21:32;;;;;;;30.57;11.57;;;;;;;;;;5074171;28;20192;-76
2023/12/17 00:23:59;;;;;;;36.07;12.80;;;;;;;;;;5056614;28;20223;-77
2023/12/17 00:26:26;;;;;;;23.83;10.70;;;;;;;;;;5040033;28;20202;-77
2023/12/17 00:28:53;;;;;;;24.03;11.30;;;;;;;;;;5074442;28;20272;-76
2023/12/17 00:31:20;;;;;;;24.57;11.03;;;;;;;;;;5056852;28;20541;-78
2023/12/17 00:33:47;;;;;;;23.30;10.43;;;;;;;;;;5074696;28;20199;-78
2023/12/17 00:36:15;;;;;;;23.53;10.97;;;;;;;;;;5073956;28;20256;-78
2023/12/17 00:38:42;;;;;;;24.30;9.83;;;;;;;;;;5073926;28;20207;-78
2023/12/17 00:41:09;;;;;;;26.33;10.27;;;;;;;;;;5073357;28;20210;-79
2023/12/17 00:43:36;;;;;;;25.52;10.48;;;;;;;;;;5072986;28;20230;-77
2023/12/17 00:46:03;;;;;;;26.37;11.17;;;;;;;;;;5073700;28;20211;-76
2023/12/17 00:48:31;;;;;;;22.90;9.37;;;;;;;;;;5073638;28;20703;-77
2023/12/17 00:50:58;;;;;;;19.00;10.03;;;;;;;;;;5056052;28;20192;-76
2023/12/17 00:53:25;;;;;;;21.13;9.77;;;;;;;;;;5073609;28;20187;-77
2023/12/17 00:55:53;;;;;;;19.93;10.13;;;;;;;;;;5073564;28;20237;-77
2023/12/17 00:58:21;;;;;;;24.23;10.23;;;;;;;;;;5073600;28;20199;-77
2023/12/17 01:00:48;;;;;;;26.27;11.60;;;;;;;;;;5055481;28;20214;-75
2023/12/17 01:03:21;;;;;;;19.10;9.57;;;;;;;;;;5073400;28;20223;-76
2023/12/17 01:05:49;;;;;;;23.63;10.13;;;;;;;;;;5073102;28;20203;-76
2023/12/17 01:08:16;;;;;;;29.43;12.17;;;;;;;;;;5055826;28;20203;-76
2023/12/17 01:10:43;;;;;;;24.53;10.40;;;;;;;;;;5073574;28;20206;-76
2023/12/17 01:13:10;;;;;;;19.40;9.40;;;;;;;;;;5073222;28;20285;-76
2023/12/17 01:15:37;;;;;;;19.33;9.70;;;;;;;;;;5073279;28;20248;-76
2023/12/17 01:18:05;;;;;;;20.58;9.63;;;;;;;;;;5073148;28;20586;-76
2023/12/17 01:20:32;;;;;;;25.50;11.98;;;;;;;;;;5073381;28;20195;-77
2023/12/17 01:22:59;;;;;;;26.02;12.05;;;;;;;;;;5072986;28;20227;-77
2023/12/17 01:25:26;;;;;;;27.07;12.47;;;;;;;;;;5073114;28;20198;-76
2023/12/17 01:27:53;;;;;;;36.20;16.03;;;;;;;;;;5073025;28;20241;-76
2023/12/17 01:30:20;;;;;;;27.27;12.63;;;;;;;;;;5073447;28;20766;-76
2023/12/17 01:32:47;;;;;;;35.57;13.73;;;;;;;;;;5073088;28;20219;-76
2023/12/17 01:35:15;;;;;;;34.37;16.37;;;;;;;;;;5055849;28;20586;-75
2023/12/17 01:37:42;;;;;;;27.40;13.23;;;;;;;;;;5073186;28;20227;-76
2023/12/17 01:40:10;;;;;;;26.67;14.07;;;;;;;;;;5073440;28;20199;-76
2023/12/17 01:42:37;;;;;;;25.57;13.53;;;;;;;;;;5073362;28;20276;-76
2023/12/17 01:45:06;;;;;;;24.33;12.13;;;;;;;;;;5073202;28;20603;-75
2023/12/17 01:47:33;;;;;;;25.67;14.20;;;;;;;;;;5055838;28;20637;-76
2023/12/17 01:50:01;;;;;;;25.57;13.57;;;;;;;;;;5056209;28;20199;-78
2023/12/17 01:52:28;;;;;;;26.80;14.03;;;;;;;;;;5055521;28;20206;-78
2023/12/17 01:54:55;;;;;;;35.33;13.90;;;;;;;;;;5059036;28;20545;-79
2023/12/17 01:57:22;;;;;;;31.27;14.57;;;;;;;;;;5077141;28;20280;-79
2023/12/17 01:59:50;;;;;;;21.10;12.27;;;;;;;;;;5076886;28;20199;-78
2023/12/17 02:02:17;;;;;;;27.70;12.70;;;;;;;;;;5077037;28;20256;-76
2023/12/17 02:04:44;;;;;;;23.07;12.20;;;;;;;;;;5077542;28;20199;-75
2023/12/17 02:07:11;;;;;;;24.47;12.57;;;;;;;;;;5042802;28;20211;-76
2023/12/17 02:09:39;;;;;;;21.97;11.83;;;;;;;;;;5076860;28;20195;-75
2023/12/17 02:12:06;;;;;;;25.57;12.20;;;;;;;;;;5058774;28;20198;-77
2023/12/17 02:14:33;;;;;;;21.60;11.80;;;;;;;;;;5077046;28;20194;-77
2023/12/17 02:17:00;;;;;;;21.37;11.87;;;;;;;;;;5076664;28;20192;-76
2023/12/17 02:19:27;;;;;;;26.00;12.03;;;;;;;;;;5058975;28;20195;-77
2023/12/17 02:21:54;;;;;;;24.87;11.40;;;;;;;;;;5076393;28;20214;-76
2023/12/17 02:24:21;;;;;;;24.93;11.60;;;;;;;;;;5076515;28;20223;-76
2023/12/17 02:26:48;;;;;;;20.87;11.23;;;;;;;;;;5076490;28;20195;-76
2023/12/17 02:29:16;;;;;;;20.30;10.90;;;;;;;;;;5076493;28;20203;-77
2023/12/17 02:31:43;;;;;;;24.10;12.00;;;;;;;;;;5058547;28;20196;-77
2023/12/17 02:34:10;;;;;;;26.97;13.33;;;;;;;;;;5076302;28;20253;-76
2023/12/17 02:36:37;;;;;;;25.30;12.47;;;;;;;;;;5076162;28;20208;-77
2023/12/17 02:39:09;;;;;;;20.23;11.47;;;;;;;;;;5076196;28;20195;-76
2023/12/17 02:41:35;;;;;;;26.33;13.00;;;;;;;;;;5076348;28;20298;-77
2023/12/17 02:44:03;;;;;;;21.47;11.30;;;;;;;;;;5075717;28;20599;-76
2023/12/17 02:46:30;;;;;;;23.10;11.03;;;;;;;;;;5076307;28;20199;-76
2023/12/17 02:48:57;;;;;;;23.73;11.43;;;;;;;;;;5075996;28;20195;-76
2023/12/17 02:51:24;;;;;;;23.43;11.93;;;;;;;;;;5075921;28;20207;-77
2023/12/17 02:53:51;;;;;;;24.67;11.93;;;;;;;;;;5075694;28;20203;-76
2023/12/17 02:56:18;;;;;;;34.67;12.23;;;;;;;;;;5076169;28;20227;-75
2023/12/17 02:58:45;;;;;;;24.30;12.93;;;;;;;;;;5075857;28;20200;-75
2023/12/17 03:01:13;;;;;;;16.83;10.80;;;;;;;;;;5041132;28;20289;-76
2023/12/17 03:03:40;;;;;;;17.57;10.40;;;;;;;;;;5074186;28;20215;-76
2023/12/17 03:06:07;;;;;;;40.30;13.67;;;;;;;;;;5073808;28;20184;-76
2023/12/17 03:08:37;;;;;;;22.37;11.40;;;;;;;;;;5074775;28;20206;-76
2023/12/17 03:11:04;;;;;;;17.83;10.80;;;;;;;;;;5056471;28;20214;-76
2023/12/17 03:13:32;;;;;;;25.50;11.80;;;;;;;;;;5074206;28;20652;-76
2023/12/17 03:15:59;;;;;;;26.27;12.60;;;;;;;;;;5073848;28;20211;-76
2023/12/17 03:18:26;;;;;;;24.60;11.50;;;;;;;;;;5073967;28;20187;-76
2023/12/17 03:20:53;;;;;;;22.10;9.93;;;;;;;;;;5073245;28;20636;-76
2023/12/17 03:23:20;;;;;;;21.87;13.00;;;;;;;;;;5056231;28;20218;-75
2023/12/17 03:25:47;;;;;;;23.47;10.93;;;;;;;;;;5074675;28;20294;-76
2023/12/17 03:28:14;;;;;;;32.15;13.15;;;;;;;;;;5075043;28;20203;-76
2023/12/17 03:30:41;;;;;;;24.00;11.83;;;;;;;;;;5075205;28;20656;-76
2023/12/17 03:33:10;;;;;;;21.92;11.90;;;;;;;;;;5074767;28;20625;-77
2023/12/17 03:35:38;;;;;;;25.17;11.83;;;;;;;;;;5041217;28;20564;-76
2023/12/17 03:38:05;;;;;;;26.53;12.07;;;;;;;;;;5074949;28;20207;-76
2023/12/17 03:40:33;;;;;;;23.83;11.00;;;;;;;;;;5075100;28;20204;-76
2023/12/17 03:43:00;;;;;;;23.37;12.23;;;;;;;;;;5056913;28;20230;-74
2023/12/17 03:45:27;;;;;;;21.77;12.73;;;;;;;;;;5056946;28;20653;-78
2023/12/17 03:47:54;;;;;;;25.17;13.33;;;;;;;;;;5074601;28;20196;-79
2023/12/17 03:50:21;;;;;;;27.33;14.43;;;;;;;;;;5074944;28;20196;-75
2023/12/17 03:52:48;;;;;;;20.88;11.52;;;;;;;;;;5074660;28;20199;-75
2023/12/17 03:55:15;;;;;;;22.75;11.95;;;;;;;;;;5040225;28;20239;-75
2023/12/17 03:57:43;;;;;;;25.40;13.27;;;;;;;;;;5056658;28;20202;-75
2023/12/17 04:00:10;;;;;;;28.03;13.47;;;;;;;;;;5074590;28;20203;-76
2023/12/17 04:02:38;;;;;;;22.23;12.90;;;;;;;;;;5074677;28;20192;-76
2023/12/17 04:05:06;;;;;;;22.15;11.93;;;;;;;;;;5074491;28;20765;-75
2023/12/17 04:07:33;;;;;;;27.33;13.80;;;;;;;;;;5057160;28;20199;-76
2023/12/17 04:10:01;;;;;;;32.07;13.70;;;;;;;;;;5074329;28;20243;-76
2023/12/17 04:12:28;;;;;;;25.33;13.10;;;;;;;;;;5056692;28;20203;-76
2023/12/17 04:14:55;;;;;;;23.80;13.90;;;;;;;;;;5074338;28;20278;-76
2023/12/17 04:17:23;;;;;;;25.90;13.57;;;;;;;;;;5074319;28;20204;-76
2023/12/17 04:19:50;;;;;;;27.67;13.93;;;;;;;;;;5074361;28;20195;-76
2023/12/17 04:22:17;;;;;;;28.60;13.87;;;;;;;;;;5074435;28;20195;-76
2023/12/17 04:24:44;;;;;;;31.20;14.07;;;;;;;;;;5074234;28;20227;-75
2023/12/17 04:27:11;;;;;;;29.57;15.17;;;;;;;;;;5073922;28;20215;-76
2023/12/17 04:29:38;;;;;;;34.70;16.17;;;;;;;;;;5073940;28;20676;-79
2023/12/17 04:32:05;;;;;;;34.93;14.87;;;;;;;;;;5074515;28;20191;-79
2023/12/17 04:34:32;;;;;;;35.83;17.93;;;;;;;;;;5074249;28;20200;-79
2023/12/17 04:37:00;;;;;;;27.10;15.67;;;;;;;;;;5074097;28;20196;-75
2023/12/17 04:39:27;;;;;;;30.00;14.67;;;;;;;;;;5073962;28;20187;-76
2023/12/17 04:41:54;;;;;;;32.00;15.17;;;;;;;;;;5073834;28;20598;-76
2023/12/17 04:44:21;;;;;;;35.57;15.53;;;;;;;;;;5073933;28;20238;-76
2023/12/17 04:46:48;;;;;;;28.77;14.57;;;;;;;;;;5073813;28;20202;-76
2023/12/17 04:49:15;;;;;;;31.23;15.43;;;;;;;;;;5073749;28;20554;-76
2023/12/17 04:51:43;;;;;;;33.47;14.30;;;;;;;;;;5073895;28;20211;-76
2023/12/17 04:54:10;;;;;;;37.58;16.27;;;;;;;;;;5073584;28;20261;-76
2023/12/17 04:56:37;;;;;;;34.37;15.70;;;;;;;;;;5073624;28;20235;-76
2023/12/17 04:59:04;;;;;;;40.45;16.70;;;;;;;;;;5039659;28;20226;-79
2023/12/17 05:01:31;;;;;;;33.43;15.57;;;;;;;;;;5073034;28;20209;-78
2023/12/17 05:03:58;;;;;;;32.83;15.50;;;;;;;;;;5072922;28;20265;-78
2023/12/17 05:06:26;;;;;;;25.40;13.95;;;;;;;;;;5073748;28;20215;-79
2023/12/17 05:08:53;;;;;;;28.17;14.27;;;;;;;;;;5073538;28;20242;-78
2023/12/17 05:11:20;;;;;;;30.70;15.25;;;;;;;;;;5073446;28;20206;-78
2023/12/17 05:13:47;;;;;;;29.57;14.67;;;;;;;;;;5055674;28;20202;-77
2023/12/17 05:16:14;;;;;;;30.53;15.23;;;;;;;;;;5073760;28;20207;-78
2023/12/17 05:18:41;;;;;;;32.50;16.50;;;;;;;;;;5073345;28;20211;-78
2023/12/17 05:21:09;;;;;;;29.77;15.83;;;;;;;;;;5073432;28;20678;-79
2023/12/17 05:23:36;;;;;;;34.77;15.03;;;;;;;;;;5073532;28;20321;-78
2023/12/17 05:26:03;;;;;;;26.73;13.73;;;;;;;;;;5073483;28;20210;-78
2023/12/17 05:28:30;;;;;;;33.80;15.55;;;;;;;;;;5074202;28;20207;-75
2023/12/17 05:30:57;;;;;;;36.93;16.00;;;;;;;;;;5078001;28;20206;-76
2023/12/17 05:33:24;;;;;;;29.57;15.63;;;;;;;;;;5078082;28;20191;-76
2023/12/17 05:35:52;;;;;;;33.40;15.77;;;;;;;;;;5077406;28;20198;-76
2023/12/17 05:38:21;;;;;;;32.80;15.20;;;;;;;;;;5077106;28;20314;-77
2023/12/17 05:40:48;;;;;;;31.80;15.23;;;;;;;;;;5059303;28;20199;-77
2023/12/17 05:43:15;;;;;;;38.87;17.03;;;;;;;;;;5076867;28;20293;-76
2023/12/17 05:45:42;;;;;;;33.97;16.60;;;;;;;;;;5077150;28;20199;-76
2023/12/17 05:48:23;;;;;;;30.77;14.80;;;;;;;;;;5077528;28;20209;-76
2023/12/17 05:50:51;;;;;;;36.30;15.63;;;;;;;;;;5076918;28;20222;-77
2023/12/17 05:53:18;;;;;;;30.83;14.90;;;;;;;;;;5059369;28;20282;-76
2023/12/17 05:55:49;;;;;;;31.43;14.77;;;;;;;;;;5062774;28;20235;-76
2023/12/17 05:58:16;;;;;;;40.77;15.87;;;;;;;;;;5058108;28;20196;-76
2023/12/17 06:00:43;;;;;;;28.37;13.70;;;;;;;;;;5056328;28;20200;-76
2023/12/17 06:03:10;;;;;;;33.70;15.80;;;;;;;;;;5056105;28;20280;-75
2023/12/17 06:05:38;;;;;;;26.83;14.43;;;;;;;;;;5053442;28;20295;-76
2023/12/17 06:08:04;;;;;;;31.87;14.00;;;;;;;;;;5056033;28;20569;-77
2023/12/17 06:10:32;;;;;;;36.23;15.13;;;;;;;;;;5059017;28;20653;-77
2023/12/17 06:12:59;;;;;;;31.42;14.68;;;;;;;;;;5064875;28;20218;-78
2023/12/17 06:15:26;;;;;;;33.17;14.75;;;;;;;;;;5038931;28;20200;-77
2023/12/17 06:17:54;;;;;;;36.73;14.63;;;;;;;;;;5056645;28;20286;-77
2023/12/17 06:20:22;;;;;;;34.60;15.13;;;;;;;;;;5056087;28;20204;-77
2023/12/17 06:22:52;;;;;;;31.23;13.10;;;;;;;;;;5056030;28;20208;-77
2023/12/17 06:25:19;;;;;;;38.00;16.20;;;;;;;;;;5056172;28;20224;-77
2023/12/17 06:27:46;;;;;;;30.55;14.82;;;;;;;;;;5055940;28;20203;-76
2023/12/17 06:30:13;;;;;;;34.28;15.45;;;;;;;;;;5039333;28;20196;-78
2023/12/17 06:32:41;;;;;;;32.58;15.98;;;;;;;;;;5040120;28;20206;-77
2023/12/17 06:35:09;;;;;;;34.85;15.27;;;;;;;;;;5064380;28;20195;-78
2023/12/17 06:37:36;;;;;;;31.97;15.07;;;;;;;;;;5075447;28;20202;-77
2023/12/17 06:40:04;;;;;;;34.93;15.50;;;;;;;;;;5074757;28;20199;-78
2023/12/17 06:42:34;;;;;;;42.47;14.88;;;;;;;;;;5076191;28;20208;-77
2023/12/17 06:45:01;;;;;;;36.72;14.98;;;;;;;;;;5075788;28;20229;-78
2023/12/17 06:47:28;;;;;;;36.57;13.23;;;;;;;;;;5076195;28;20226;-78
2023/12/17 06:49:56;;;;;;;33.95;15.35;;;;;;;;;;5075683;28;20210;-77
2023/12/17 06:52:23;;;;;;;31.25;15.27;;;;;;;;;;5075703;28;20234;-78
2023/12/17 06:54:50;;;;;;;29.90;13.55;;;;;;;;;;5076621;28;20214;-78
2023/12/17 06:57:17;;;;;;;29.97;13.20;;;;;;;;;;5095796;28;20198;-78
2023/12/17 06:59:45;;;;;;;31.47;15.07;;;;;;;;;;5078247;28;20631;-77
2023/12/17 07:02:12;;;;;;;32.40;14.80;;;;;;;;;;5095748;28;20207;-78
2023/12/17 07:04:39;;;;;;;40.63;16.40;;;;;;;;;;5095572;28;20283;-78
2023/12/17 07:07:06;;;;;;;31.02;13.48;;;;;;;;;;5095684;28;20198;-78
2023/12/17 07:09:33;;;;;;;40.43;16.73;;;;;;;;;;5095598;28;20198;-78
2023/12/17 07:12:00;;;;;;;27.40;13.13;;;;;;;;;;5095676;28;20289;-78
2023/12/17 07:14:28;;;;;;;38.53;16.47;;;;;;;;;;5095475;28;20206;-78
2023/12/17 07:16:55;;;;;;;33.45;15.77;;;;;;;;;;5096016;28;20357;-78
2023/12/17 07:19:25;;;;;;;36.70;15.88;;;;;;;;;;5095713;28;20248;-77
2023/12/17 07:21:52;;;;;;;38.70;17.08;;;;;;;;;;5095893;28;20195;-78
2023/12/17 07:24:20;;;;;;;32.25;13.95;;;;;;;;;;5095189;28;20219;-78
2023/12/17 07:26:48;;;;;;;38.05;16.55;;;;;;;;;;5077639;28;20199;-77
2023/12/17 07:29:16;;;;;;;33.08;16.80;;;;;;;;;;5095577;28;20197;-78
2023/12/17 07:31:43;;;;;;;35.90;15.35;;;;;;;;;;5095515;28;20199;-77
2023/12/17 07:34:10;;;;;;;29.83;14.73;;;;;;;;;;5077643;28;20553;-78
2023/12/17 07:36:37;;;;;;;36.40;15.47;;;;;;;;;;5095107;28;20285;-78
2023/12/17 07:39:05;;;;;;;37.22;15.75;;;;;;;;;;5095151;28;20202;-78
2023/12/17 07:41:32;;;;;;;39.10;15.07;;;;;;;;;;5095322;28;20206;-78
2023/12/17 07:43:59;;;;;;;34.10;15.50;;;;;;;;;;5076221;28;20201;-77
2023/12/17 07:46:26;;;;;;;34.42;15.18;;;;;;;;;;5094236;28;20202;-78
2023/12/17 07:48:53;;;;;;;30.92;13.10;;;;;;;;;;5095005;28;20205;-78
2023/12/17 07:51:20;;;;;;;24.65;12.38;;;;;;;;;;5094846;28;20198;-78
2023/12/17 07:53:48;;;;;;;32.50;15.52;;;;;;;;;;5094810;28;20194;-78
2023/12/17 07:56:15;;;;;;;34.17;15.13;;;;;;;;;;5094843;28;20230;-78
2023/12/17 07:58:42;;;;;;;37.50;14.27;;;;;;;;;;5094666;28;20191;-78
2023/12/17 08:01:09;;;;;;;33.10;14.07;;;;;;;;;;5094845;28;20731;-78
2023/12/17 08:03:37;;;;;;;32.75;13.25;;;;;;;;;;5094378;28;20207;-77
2023/12/17 08:06:04;;;;;;;29.55;13.93;;;;;;;;;;5086847;28;20671;-78
2023/12/17 08:08:31;;;;;;;32.40;15.68;;;;;;;;;;5080217;28;20553;-77
2023/12/17 08:10:58;;;;;;;25.60;13.68;;;;;;;;;;5049451;28;20249;-77
2023/12/17 08:13:25;;;;;;;28.52;13.70;;;;;;;;;;5072704;28;20250;-78
2023/12/17 08:15:54;;;;;;;40.08;15.52;;;;;;;;;;5085844;28;20673;-78
2023/12/17 08:18:22;;;;;;;25.52;13.45;;;;;;;;;;5079957;28;20703;-78
2023/12/17 08:20:49;;;;;;;34.67;14.82;;;;;;;;;;5075793;28;20223;-78
2023/12/17 08:23:16;;;;;;;22.98;13.90;;;;;;;;;;5068782;28;20223;-78
2023/12/17 08:25:43;;;;;;;32.97;16.05;;;;;;;;;;5056770;28;20254;-78
2023/12/17 08:28:10;;;;;;;27.73;14.43;;;;;;;;;;5057996;28;20231;-78
2023/12/17 08:30:39;;;;;;;27.92;13.27;;;;;;;;;;5072705;28;20281;-78
2023/12/17 08:33:07;;;;;;;29.67;13.73;;;;;;;;;;5051268;28;20628;-77
2023/12/17 08:35:37;;;;;;;30.73;15.52;;;;;;;;;;5072342;28;20235;-77
2023/12/17 08:38:06;;;;;;;37.83;17.95;;;;;;;;;;5081756;28;20221;-78
2023/12/17 08:40:34;;;;;;;32.88;14.98;;;;;;;;;;5074082;28;20242;-77
2023/12/17 08:43:02;;;;;;;31.88;16.67;;;;;;;;;;5089399;28;20717;-78
2023/12/17 08:45:30;;;;;;;44.58;20.30;;;;;;;;;;5072179;28;20326;-78
2023/12/17 08:47:57;;;;;;;46.22;23.10;;;;;;;;;;5052467;28;20227;-78
2023/12/17 08:50:57;;;;;;;40.92;20.77;;;;;;;;;;5076051;23;20241;-78
2023/12/17 08:53:26;;;;;;;48.53;21.67;;;;;;;;;;4979853;28;20265;-78
2023/12/17 08:55:53;;;;;;;44.53;22.27;;;;;;;;;;4993560;28;20209;-78
2023/12/17 08:58:21;;;;;;;45.22;20.38;;;;;;;;;;4976683;28;20252;-79
2023/12/17 09:00:47;;;;;;;43.70;22.20;;;;;;;;;;5006730;28;20197;-79
2023/12/17 09:03:15;;;;;;;38.10;20.50;;;;;;;;;;5012378;28;20206;-78
2023/12/17 09:05:43;;;;;;;38.50;18.52;;;;;;;;;;5012629;28;20236;-78
2023/12/17 09:08:10;;;;;;;36.53;18.52;;;;;;;;;;4992111;28;20660;-78
2023/12/17 09:10:37;;;;;;;51.28;24.27;;;;;;;;;;5000873;28;20205;-77
2023/12/17 09:13:04;;;;;;;41.50;19.30;;;;;;;;;;5012636;28;20201;-78
2023/12/17 09:15:31;;;;;;;45.65;18.13;;;;;;;;;;5012841;28;20209;-78
2023/12/17 09:17:59;;;;;;;39.15;16.27;;;;;;;;;;5012976;28;20201;-78
2023/12/17 09:20:26;;;;;;;33.28;16.10;;;;;;;;;;5012850;28;20209;-78
2023/12/17 09:22:53;;;;;;;36.65;16.67;;;;;;;;;;5012492;28;20216;-78
2023/12/17 09:25:20;;;;;;;28.13;14.50;;;;;;;;;;5012574;28;20208;-79
2023/12/17 09:27:47;;;;;;;42.13;17.58;;;;;;;;;;5012675;28;20193;-78
2023/12/17 09:30:15;;;;;;;34.63;17.27;;;;;;;;;;4993110;28;20732;-78
2023/12/17 09:32:44;;;;;;;33.55;13.50;;;;;;;;;;4992705;28;20213;-78
2023/12/17 09:35:11;;;;;;;41.20;18.30;;;;;;;;;;4993117;28;20648;-79
2023/12/17 09:37:40;;;;;;;34.40;17.00;;;;;;;;;;4993070;28;20256;-78
2023/12/17 09:40:08;;;;;;;38.45;17.75;;;;;;;;;;4992985;28;20206;-78
2023/12/17 09:42:35;;;;;;;34.90;19.48;;;;;;;;;;4991845;28;20198;-78
2023/12/17 09:45:03;;;;;;;34.40;16.02;;;;;;;;;;4975606;28;20233;-78
2023/12/17 09:47:30;;;;;;;30.98;14.93;;;;;;;;;;4976088;28;20198;-78
2023/12/17 09:49:57;;;;;;;33.10;16.30;;;;;;;;;;4975468;28;20219;-78
2023/12/17 09:52:28;;;;;;;35.58;15.20;;;;;;;;;;5003994;28;20229;-78
2023/12/17 09:54:55;;;;;;;35.58;15.55;;;;;;;;;;5011158;28;20205;-79
2023/12/17 09:57:23;;;;;;;42.60;15.80;;;;;;;;;;5012432;28;20213;-78
2023/12/17 09:59:50;;;;;;;27.75;15.52;;;;;;;;;;5012372;28;20230;-78
2023/12/17 10:02:17;;;;;;;29.90;14.65;;;;;;;;;;5012494;28;20194;-78
2023/12/17 10:04:44;;;;;;;33.65;16.25;;;;;;;;;;4994903;28;20229;-78
2023/12/17 10:07:12;;;;;;;29.77;13.30;;;;;;;;;;5012629;28;20550;-78
2023/12/17 10:09:39;;;;;;;39.90;14.95;;;;;;;;;;4994749;28;20209;-78
2023/12/17 10:12:06;;;;;;;27.95;14.07;;;;;;;;;;5012627;28;20651;-78
2023/12/17 10:14:33;;;;;;;26.23;13.70;;;;;;;;;;4996441;28;20189;-78
2023/12/17 10:17:00;;;;;;;28.30;13.25;;;;;;;;;;4998630;28;20209;-78
2023/12/17 10:19:27;;;;;;;34.17;15.02;;;;;;;;;;5016005;28;20209;-78
2023/12/17 10:21:56;;;;;;;28.92;13.48;;;;;;;;;;5015926;28;20201;-79
2023/12/17 10:24:36;;;;;;;31.70;14.07;;;;;;;;;;5015789;28;20205;-79
2023/12/17 10:27:17;;;;;;;36.28;14.45;;;;;;;;;;4982706;28;20217;-78
2023/12/17 10:29:53;;;;;;;30.10;14.82;;;;;;;;;;4998378;28;20561;-78
2023/12/17 10:32:22;;;;;;;25.40;12.35;;;;;;;;;;5014503;28;20208;-78
2023/12/17 10:34:50;;;;;;;30.42;13.75;;;;;;;;;;4998167;28;20256;-78
2023/12/17 10:37:20;;;;;;;34.05;15.35;;;;;;;;;;5015534;28;20209;-78
2023/12/17 10:39:51;;;;;;;35.70;15.30;;;;;;;;;;5014405;28;20284;-81
2023/12/17 10:42:19;;;;;;;39.95;15.55;;;;;;;;;;5014916;28;20201;-81
2023/12/17 10:44:48;;;;;;;31.00;14.45;;;;;;;;;;5014055;28;20248;-79
2023/12/17 10:47:25;;;;;;;54.55;21.48;;;;;;;;;;5012482;28;20206;-78
2023/12/17 10:49:53;;;;;;;36.63;14.80;;;;;;;;;;5005896;28;20197;-79
2023/12/17 10:52:24;;;;;;;35.08;15.70;;;;;;;;;;5009126;28;20775;-79
2023/12/17 10:54:52;;;;;;;38.17;16.38;;;;;;;;;;5008921;28;20239;-78
2023/12/17 10:57:23;;;;;;;44.03;16.38;;;;;;;;;;4996571;28;20264;-79
2023/12/17 10:59:51;;;;;;;47.42;17.10;;;;;;;;;;4995116;28;20328;-78
2023/12/17 11:02:22;;;;;;;37.97;14.93;;;;;;;;;;5010042;28;20233;-78
2023/12/17 11:04:49;;;;;;;39.45;16.00;;;;;;;;;;5011471;28;20236;-78
2023/12/17 11:07:18;;;;;;;34.40;14.90;;;;;;;;;;5012610;28;20237;-78
2023/12/17 11:10:01;;;;;;;40.20;17.13;;;;;;;;;;4996665;28;20229;-79
2023/12/17 11:12:28;;;;;;;39.67;15.63;;;;;;;;;;4995203;28;20237;-78
2023/12/17 11:14:58;;;;;;;37.08;16.17;;;;;;;;;;5013468;28;20222;-79
2023/12/17 11:17:27;;;;;;;38.67;16.05;;;;;;;;;;5012921;28;20221;-78
2023/12/17 11:19:55;;;;;;;51.70;21.52;;;;;;;;;;5012721;28;20217;-79
2023/12/17 11:22:23;;;;;;;42.00;16.80;;;;;;;;;;5010028;28;20221;-78
2023/12/17 11:24:53;;;;;;;37.50;15.07;;;;;;;;;;5013877;28;20255;-78
2023/12/17 11:27:22;;;;;;;37.67;14.85;;;;;;;;;;5012151;28;20221;-78
2023/12/17 11:29:51;;;;;;;44.03;14.98;;;;;;;;;;5010961;28;20232;-78
2023/12/17 11:32:22;;;;;;;37.88;14.68;;;;;;;;;;5012492;28;20229;-79
2023/12/17 11:34:50;;;;;;;44.03;15.70;;;;;;;;;;5012113;28;20237;-78
2023/12/17 11:37:18;;;;;;;31.40;13.55;;;;;;;;;;5011538;28;20248;-78
2023/12/17 11:39:49;;;;;;;31.92;13.88;;;;;;;;;;5010101;28;20229;-79
2023/12/17 11:42:18;;;;;;;56.97;21.42;;;;;;;;;;5012363;28;20229;-78
2023/12/17 11:44:49;;;;;;;38.17;15.35;;;;;;;;;;5009647;28;20236;-78
2023/12/17 11:47:27;;;;;;;29.00;12.90;;;;;;;;;;5012620;28;20224;-77
2023/12/17 11:49:59;;;;;;;31.88;14.13;;;;;;;;;;5010968;28;20225;-79
2023/12/17 11:52:27;;;;;;;36.10;14.73;;;;;;;;;;4995618;28;20253;-79
2023/12/17 11:54:58;;;;;;;47.33;15.93;;;;;;;;;;4995093;28;20257;-78
2023/12/17 11:57:30;;;;;;;33.17;14.65;;;;;;;;;;5013152;28;20217;-78
2023/12/17 11:59:57;;;;;;;48.17;17.00;;;;;;;;;;5013124;28;20240;-78
2023/12/17 12:02:33;;;;;;;108.88;35.00;;;;;;;;;;5012992;28;20225;-78
2023/12/17 12:05:00;;;;;;;72.28;25.95;;;;;;;;;;5013055;28;20233;-78
2023/12/17 12:07:27;;;;;;;64.30;27.95;;;;;;;;;;5012473;28;20306;-78
2023/12/17 12:10:05;;;;;;;36.75;14.18;;;;;;;;;;5010967;28;20232;-78
2023/12/17 12:12:33;;;;;;;26.73;12.90;;;;;;;;;;5011949;28;20229;-79
2023/12/17 12:15:02;;;;;;;30.83;12.82;;;;;;;;;;5012612;28;20252;-80
2023/12/17 12:17:41;;;;;;;31.42;13.38;;;;;;;;;;5013046;28;20231;-78
2023/12/17 12:20:12;;;;;;;30.38;15.00;;;;;;;;;;5012305;28;20229;-79
2023/12/17 12:22:42;;;;;;;30.48;14.70;;;;;;;;;;5011633;28;20228;-80
2023/12/17 12:25:18;;;;;;;30.63;13.90;;;;;;;;;;5011713;28;20585;-79
2023/12/17 12:27:45;;;;;;;36.33;14.32;;;;;;;;;;5011038;28;20217;-79
2023/12/17 12:30:28;;;;;;;47.38;18.55;;;;;;;;;;5010892;28;20225;-79
2023/12/17 12:33:07;;;;;;;33.42;14.35;;;;;;;;;;5012017;28;20209;-79
2023/12/17 12:35:35;;;;;;;33.20;14.10;;;;;;;;;;5011875;28;20229;-80
2023/12/17 12:38:04;;;;;;;31.77;13.15;;;;;;;;;;5011750;28;20230;-80
2023/12/17 12:40:31;;;;;;;21.45;11.45;;;;;;;;;;5010530;28;20316;-79
2023/12/17 12:43:02;;;;;;;34.03;14.55;;;;;;;;;;5012042;28;20225;-80
2023/12/17 12:45:29;;;;;;;33.88;13.68;;;;;;;;;;5008927;28;20269;-79
2023/12/17 12:48:00;;;;;;;34.83;14.95;;;;;;;;;;5009281;28;20225;-80
2023/12/17 12:50:27;;;;;;;34.83;14.27;;;;;;;;;;5008305;28;20244;-79
2023/12/17 12:52:54;;;;;;;38.90;15.55;;;;;;;;;;5008015;28;20244;-78
2023/12/17 12:55:21;;;;;;;26.98;14.27;;;;;;;;;;5010325;28;20232;-78
2023/12/17 12:57:48;;;;;;;30.38;13.02;;;;;;;;;;5011451;28;20237;-78
2023/12/17 13:00:16;;;;;;;29.98;12.63;;;;;;;;;;5010806;28;20694;-78
2023/12/17 13:02:44;;;;;;;29.48;13.43;;;;;;;;;;5011176;28;20244;-78
2023/12/17 13:05:11;;;;;;;28.90;13.30;;;;;;;;;;5011222;28;20353;-78
2023/12/17 13:07:39;;;;;;;31.88;17.42;;;;;;;;;;5011649;28;20267;-78
2023/12/17 13:10:07;;;;;;;29.70;14.32;;;;;;;;;;5015401;28;20253;-80
2023/12/17 13:12:38;;;;;;;27.92;12.13;;;;;;;;;;5017746;28;20228;-79
2023/12/17 13:15:07;;;;;;;30.35;13.23;;;;;;;;;;5013512;28;20260;-78
2023/12/17 13:17:34;;;;;;;26.75;12.32;;;;;;;;;;5008278;28;20578;-78
2023/12/17 13:20:02;;;;;;;31.08;12.57;;;;;;;;;;5008553;28;20237;-79
2023/12/17 13:22:29;;;;;;;31.15;12.68;;;;;;;;;;5010661;28;20241;-79
2023/12/17 13:24:57;;;;;;;31.65;12.80;;;;;;;;;;5007611;28;20237;-78
2023/12/17 13:27:24;;;;;;;31.52;13.00;;;;;;;;;;5008685;28;20553;-78
2023/12/17 13:29:51;;;;;;;28.48;13.15;;;;;;;;;;5010382;28;20867;-79
2023/12/17 13:32:18;;;;;;;28.15;13.50;;;;;;;;;;5010598;28;20244;-79
2023/12/17 13:34:45;;;;;;;40.08;13.68;;;;;;;;;;5010606;28;20218;-79
2023/12/17 13:37:13;;;;;;;30.95;13.35;;;;;;;;;;5010527;28;20241;-78
2023/12/17 13:39:40;;;;;;;29.08;13.38;;;;;;;;;;5010232;28;20267;-78
2023/12/17 13:42:07;;;;;;;32.92;13.38;;;;;;;;;;5010581;28;20241;-78
2023/12/17 13:44:34;;;;;;;28.70;13.93;;;;;;;;;;5011163;28;20235;-78
2023/12/17 13:47:01;;;;;;;29.95;14.20;;;;;;;;;;5010424;28;20725;-78
2023/12/17 13:49:29;;;;;;;31.88;13.35;;;;;;;;;;5013012;28;20224;-78
2023/12/17 13:51:56;;;;;;;31.55;14.18;;;;;;;;;;5005970;28;20233;-78
2023/12/17 13:54:23;;;;;;;33.72;15.50;;;;;;;;;;4994357;28;20313;-78
2023/12/17 13:56:51;;;;;;;32.75;14.70;;;;;;;;;;4994185;28;20237;-79
2023/12/17 13:59:17;;;;;;;35.47;15.18;;;;;;;;;;4994599;28;20252;-79
2023/12/17 14:01:45;;;;;;;33.80;16.63;;;;;;;;;;4994331;28;20245;-79
2023/12/17 14:04:12;;;;;;;35.00;16.02;;;;;;;;;;4994869;28;20218;-79
2023/12/17 14:06:39;;;;;;;35.38;16.73;;;;;;;;;;4993220;28;20244;-79
2023/12/17 14:09:07;;;;;;;34.50;14.85;;;;;;;;;;4993487;28;20233;-80
2023/12/17 14:11:38;;;;;;;33.80;15.82;;;;;;;;;;4994794;28;20284;-79
2023/12/17 14:14:05;;;;;;;27.90;13.90;;;;;;;;;;4992183;28;20676;-80
2023/12/17 14:16:36;;;;;;;31.50;14.65;;;;;;;;;;4994808;28;20226;-79
2023/12/17 14:19:04;;;;;;;36.97;15.00;;;;;;;;;;4994242;28;20238;-79
2023/12/17 14:21:33;;;;;;;30.48;14.27;;;;;;;;;;4993915;28;20245;-80